createdAt,value
2022-12-12T00:01:31.068Z,4.82
2022-12-12T00:03:58.005Z,4.15
2022-12-12T00:06:25.175Z,4.70
2022-12-12T00:08:52.236Z,4.45
2022-12-12T00:11:19.914Z,4.63
2022-12-12T00:13:46.982Z,4.93
2022-12-12T00:16:14.139Z,4.60
2022-12-12T00:18:41.471Z,4.60
2022-12-12T00:21:15.137Z,4.50
2022-12-12T00:23:42.086Z,4.60
2022-12-12T00:26:15.677Z,4.60
2022-12-12T00:28:42.323Z,4.20
2022-12-12T00:31:09.014Z,8.45
2022-12-12T00:33:35.709Z,6.70
2022-12-12T00:36:02.390Z,7.13
2022-12-12T00:38:29.368Z,6.70
2022-12-12T00:41:00.152Z,5.78
2022-12-12T00:43:27.241Z,5.80
2022-12-12T00:45:54.295Z,5.20
2022-12-12T00:48:21.183Z,5.60
2022-12-12T00:50:47.802Z,5.35
2022-12-12T00:53:14.699Z,4.95
2022-12-12T00:55:41.381Z,5.13
2022-12-12T00:58:08.098Z,5.47
2022-12-12T01:00:35.551Z,5.20
2022-12-12T01:03:02.452Z,5.20
2022-12-12T01:05:29.756Z,4.90
2022-12-12T01:07:56.479Z,5.20
2022-12-12T01:10:23.303Z,4.90
2022-12-12T01:12:49.948Z,4.72
2022-12-12T01:15:16.657Z,4.57
2022-12-12T01:17:43.579Z,5.05
2022-12-12T01:20:23.216Z,4.65
2022-12-12T01:22:49.964Z,4.60
2022-12-12T01:25:17.413Z,4.80
2022-12-12T01:27:45.799Z,5.00
2022-12-12T01:30:14.557Z,4.60
2022-12-12T01:32:41.626Z,4.78
2022-12-12T01:35:08.645Z,4.68
2022-12-12T01:37:36.449Z,4.47
2022-12-12T01:40:04.492Z,4.78
2022-12-12T01:42:31.991Z,4.60
2022-12-12T01:45:01.262Z,4.90
2022-12-12T01:47:27.928Z,4.80
2022-12-12T01:49:57.659Z,4.50
2022-12-12T01:52:31.383Z,4.53
2022-12-12T01:55:00.224Z,4.75
2022-12-12T01:57:31.049Z,4.80
2022-12-12T01:59:59.339Z,4.40
2022-12-12T02:02:26.292Z,4.45
2022-12-12T02:04:53.107Z,4.25
2022-12-12T02:07:19.816Z,4.45
2022-12-12T02:09:47.583Z,4.28
2022-12-12T02:12:14.985Z,4.07
2022-12-12T02:14:46.660Z,4.18
2022-12-12T02:17:26.687Z,4.00
2022-12-12T02:20:12.362Z,4.25
2022-12-12T02:22:47.997Z,4.30
2022-12-12T02:25:26.813Z,4.15
2022-12-12T02:28:21.279Z,4.18
2022-12-12T02:31:03.072Z,3.55
2022-12-12T02:33:39.872Z,3.92
2022-12-12T02:36:27.083Z,3.97
2022-12-12T02:39:05.905Z,4.00
2022-12-12T02:41:43.441Z,3.70
2022-12-12T02:44:33.032Z,3.80
2022-12-12T02:47:18.544Z,3.80
2022-12-12T02:49:52.814Z,3.83
2022-12-12T02:52:19.942Z,3.70
2022-12-12T02:54:48.651Z,3.85
2022-12-12T02:57:24.088Z,3.88
2022-12-12T02:59:55.441Z,3.50
2022-12-12T03:02:52.611Z,3.60
2022-12-12T03:05:43.795Z,3.72
2022-12-12T03:08:51.887Z,3.63
2022-12-12T03:11:30.790Z,3.75
2022-12-12T03:14:10.157Z,3.88
2022-12-12T03:16:39.896Z,3.20
2022-12-12T03:19:15.807Z,3.70
2022-12-12T03:21:54.314Z,3.80
2022-12-12T03:24:50.987Z,3.50
2022-12-12T03:27:30.331Z,3.83
2022-12-12T03:30:01.955Z,4.18
2022-12-12T03:32:33.631Z,3.85
2022-12-12T03:35:04.658Z,3.67
2022-12-12T03:37:34.577Z,3.92
2022-12-12T03:40:14.496Z,3.90
2022-12-12T03:42:48.226Z,3.53
2022-12-12T03:45:31.564Z,3.80
2022-12-12T03:48:13.409Z,3.50
2022-12-12T03:50:46.095Z,3.67
2022-12-12T03:53:42.058Z,3.70
2022-12-12T03:56:11.643Z,3.50
2022-12-12T03:59:03.834Z,3.67
2022-12-12T04:01:46.186Z,3.33
2022-12-12T04:04:24.112Z,3.33
2022-12-12T04:07:01.659Z,3.50
2022-12-12T04:09:47.213Z,3.90
2022-12-12T04:12:36.657Z,3.53
2022-12-12T04:15:12.589Z,3.45
2022-12-12T04:18:10.758Z,3.53
2022-12-12T04:21:05.341Z,3.45
2022-12-12T04:23:38.636Z,3.58
2022-12-12T04:26:41.957Z,3.42
2022-12-12T04:29:08.645Z,3.38
2022-12-12T04:31:41.941Z,3.40
2022-12-12T04:34:13.973Z,3.42
2022-12-12T04:36:41.578Z,3.53
2022-12-12T04:39:10.268Z,3.30
2022-12-12T04:41:38.056Z,3.30
2022-12-12T04:44:05.656Z,3.17
2022-12-12T04:46:33.968Z,3.15
2022-12-12T04:49:05.591Z,3.42
2022-12-12T04:51:35.541Z,3.60
2022-12-12T04:54:29.213Z,3.25
2022-12-12T04:56:59.590Z,3.28
2022-12-12T04:59:26.441Z,3.38
2022-12-12T05:02:02.957Z,3.20
2022-12-12T05:04:51.640Z,3.30
2022-12-12T05:07:23.063Z,3.25
2022-12-12T05:09:50.096Z,3.08
2022-12-12T05:12:17.507Z,3.33
2022-12-12T05:14:44.285Z,2.92
2022-12-12T05:17:14.043Z,3.45
2022-12-12T05:19:40.751Z,3.40
2022-12-12T05:22:07.391Z,2.90
2022-12-12T05:24:34.059Z,2.75
2022-12-12T05:27:00.787Z,2.80
2022-12-12T05:29:27.545Z,2.80
2022-12-12T05:31:54.245Z,3.80
2022-12-12T05:34:20.882Z,8.85
2022-12-12T05:36:47.984Z,7.60
2022-12-12T05:39:14.780Z,6.75
2022-12-12T05:41:41.664Z,5.90
2022-12-12T05:44:08.451Z,5.88
2022-12-12T05:46:35.137Z,8.43
2022-12-12T05:49:01.748Z,8.23
2022-12-12T05:51:28.405Z,7.93
2022-12-12T05:53:55.375Z,6.90
2022-12-12T05:56:22.052Z,6.78
2022-12-12T05:58:48.725Z,5.93
2022-12-12T06:01:15.380Z,5.00
2022-12-12T06:03:42.407Z,5.50
2022-12-12T06:06:09.203Z,5.07
2022-12-12T06:08:35.900Z,5.22
2022-12-12T06:11:06.502Z,4.55
2022-12-12T06:13:37.126Z,4.47
2022-12-12T06:16:09.118Z,4.50
2022-12-12T06:18:36.630Z,4.10
2022-12-12T06:21:09.009Z,4.43
2022-12-12T06:23:40.305Z,4.07
2022-12-12T06:26:07.905Z,4.25
2022-12-12T06:28:35.254Z,4.20
2022-12-12T06:31:03.588Z,3.70
2022-12-12T06:33:35.548Z,4.10
2022-12-12T06:36:07.796Z,4.45
2022-12-12T06:38:36.037Z,4.00
2022-12-12T06:41:07.814Z,4.00
2022-12-12T06:43:34.711Z,3.88
2022-12-12T06:46:06.732Z,3.67
2022-12-12T06:48:34.531Z,3.88
2022-12-12T06:51:08.833Z,3.83
2022-12-12T06:53:36.403Z,3.85
2022-12-12T06:56:11.123Z,3.80
2022-12-12T06:58:37.773Z,3.80
2022-12-12T07:01:05.082Z,3.92
2022-12-12T07:03:31.836Z,4.00
2022-12-12T07:05:59.264Z,3.75
2022-12-12T07:08:26.348Z,3.60
2022-12-12T07:10:53.136Z,3.92
2022-12-12T07:13:19.801Z,3.53
2022-12-12T07:15:49.177Z,3.55
2022-12-12T07:18:17.488Z,3.53
2022-12-12T07:20:46.223Z,3.80
2022-12-12T07:23:13.394Z,3.55
2022-12-12T07:25:41.665Z,3.72
2022-12-12T07:28:10.204Z,3.42
2022-12-12T07:30:41.932Z,3.72
2022-12-12T07:33:09.480Z,3.35
2022-12-12T07:35:36.335Z,3.30
2022-12-12T07:38:03.875Z,3.67
2022-12-12T07:40:30.621Z,3.53
2022-12-12T07:42:57.355Z,3.50
2022-12-12T07:45:24.548Z,3.40
2022-12-12T07:47:52.190Z,3.55
2022-12-12T07:50:19.130Z,3.95
2022-12-12T07:52:45.818Z,3.30
2022-12-12T07:55:12.852Z,3.88
2022-12-12T07:57:41.372Z,3.45
2022-12-12T08:00:10.226Z,3.70
2022-12-12T08:02:39.761Z,3.60
2022-12-12T08:05:06.969Z,3.15
2022-12-12T08:07:33.744Z,3.30
2022-12-12T08:10:00.427Z,3.10
2022-12-12T08:12:29.636Z,3.20
2022-12-12T08:14:56.472Z,3.63
2022-12-12T08:17:23.456Z,2.85
2022-12-12T08:19:50.241Z,3.22
2022-12-12T08:22:17.410Z,2.92
2022-12-12T08:24:44.109Z,3.40
2022-12-12T08:27:15.626Z,3.05
2022-12-12T08:29:43.426Z,3.00
2022-12-12T08:32:10.316Z,3.15
2022-12-12T08:34:36.979Z,3.65
2022-12-12T08:37:03.663Z,3.08
2022-12-12T08:39:31.521Z,3.13
2022-12-12T08:41:58.610Z,3.10
2022-12-12T08:44:25.299Z,3.35
2022-12-12T08:46:52.114Z,2.70
2022-12-12T08:49:19.085Z,3.33
2022-12-12T08:51:45.823Z,3.13
2022-12-12T08:54:13.193Z,3.22
2022-12-12T08:56:40.756Z,3.17
2022-12-12T08:59:07.624Z,2.97
2022-12-12T09:01:34.419Z,3.03
2022-12-12T09:04:01.671Z,3.30
2022-12-12T09:06:28.655Z,2.90
2022-12-12T09:08:56.388Z,2.80
2022-12-12T09:11:23.733Z,2.90
2022-12-12T09:13:51.321Z,3.30
2022-12-12T09:16:19.388Z,3.28
2022-12-12T09:18:49.028Z,3.03
2022-12-12T09:21:16.834Z,2.63
2022-12-12T09:23:43.596Z,3.03
2022-12-12T09:26:11.244Z,3.03
2022-12-12T09:28:38.760Z,3.10
2022-12-12T09:31:10.402Z,2.85
2022-12-12T09:33:37.602Z,2.70
2022-12-12T09:36:07.406Z,2.75
2022-12-12T09:38:34.641Z,2.75
2022-12-12T09:41:13.394Z,2.75
2022-12-12T09:44:08.785Z,2.88
2022-12-12T09:46:46.903Z,2.55
2022-12-12T09:49:26.171Z,2.50
2022-12-12T09:51:54.502Z,2.78
2022-12-12T09:54:23.933Z,3.10
2022-12-12T09:57:09.185Z,2.83
2022-12-12T09:59:43.336Z,2.72
2022-12-12T10:02:34.599Z,2.90
2022-12-12T10:06:13.376Z,2.60
2022-12-12T10:09:27.503Z,2.83
2022-12-12T10:11:55.219Z,2.92
2022-12-12T10:14:31.656Z,2.88
2022-12-12T10:16:59.598Z,2.65
2022-12-12T10:19:29.646Z,2.58
2022-12-12T10:22:00.342Z,2.40
2022-12-12T10:24:46.457Z,2.65
2022-12-12T10:27:14.609Z,2.72
2022-12-12T10:29:47.691Z,2.70
2022-12-12T10:32:33.750Z,2.20
2022-12-12T10:35:19.992Z,2.58
2022-12-12T10:37:51.171Z,2.50
2022-12-12T10:40:18.710Z,3.10
2022-12-12T10:43:06.243Z,2.50
2022-12-12T10:45:45.248Z,2.55
2022-12-12T10:48:12.077Z,2.70
2022-12-12T10:50:43.289Z,2.50
2022-12-12T10:53:11.524Z,2.80
2022-12-12T10:56:01.077Z,2.70
2022-12-12T10:58:35.503Z,2.03
2022-12-12T11:01:04.805Z,2.70
2022-12-12T11:03:37.374Z,2.50
2022-12-12T11:06:07.248Z,2.50
2022-12-12T11:08:36.067Z,3.00
2022-12-12T11:11:02.707Z,2.60
2022-12-12T11:13:29.645Z,2.55
2022-12-12T11:16:13.539Z,2.60
2022-12-12T11:18:40.808Z,2.30
2022-12-12T11:21:09.997Z,2.30
2022-12-12T11:23:40.834Z,2.47
2022-12-12T11:26:16.846Z,2.20
2022-12-12T11:28:46.350Z,2.20
2022-12-12T11:31:17.565Z,2.30
2022-12-12T11:33:54.709Z,2.30
2022-12-12T11:36:24.443Z,2.65
2022-12-12T11:38:58.688Z,2.25
2022-12-12T11:41:25.466Z,2.50
2022-12-12T11:43:52.085Z,2.20
2022-12-12T11:46:20.972Z,2.20
2022-12-12T11:48:47.634Z,2.30
2022-12-12T11:51:39.630Z,2.50
2022-12-12T11:54:16.264Z,2.28
2022-12-12T11:56:51.365Z,2.20
2022-12-12T12:02:04.370Z,2.03
2022-12-12T12:04:44.165Z,2.20
2022-12-12T12:07:19.549Z,2.40
2022-12-12T12:10:06.121Z,2.00
2022-12-12T12:12:53.968Z,2.08
2022-12-12T12:15:45.640Z,1.98
2022-12-12T12:18:28.284Z,1.92
2022-12-12T12:21:20.778Z,2.17
2022-12-12T12:23:59.711Z,2.20
2022-12-12T12:26:37.613Z,2.10
2022-12-12T12:29:19.857Z,1.88
2022-12-12T12:31:52.589Z,2.10
2022-12-12T12:34:28.569Z,2.00
2022-12-12T12:37:04.361Z,1.90
2022-12-12T12:40:00.170Z,1.85
2022-12-12T12:42:58.370Z,1.80
2022-12-12T12:45:27.914Z,2.05
2022-12-12T12:47:59.198Z,1.85
2022-12-12T12:50:33.306Z,1.70
2022-12-12T12:53:35.466Z,1.92
2022-12-12T12:56:08.434Z,1.95
2022-12-12T12:58:44.450Z,1.85
2022-12-12T13:01:21.186Z,1.80
2022-12-12T13:04:12.757Z,1.80
2022-12-12T13:06:48.722Z,2.10
2022-12-12T13:09:33.054Z,2.00
2022-12-12T13:12:05.191Z,2.28
2022-12-12T13:14:47.254Z,2.38
2022-12-12T13:17:37.151Z,2.38
2022-12-12T13:20:04.220Z,2.55
2022-12-12T13:22:40.536Z,2.20
2022-12-12T13:25:29.090Z,2.60
2022-12-12T13:27:57.126Z,2.33
2022-12-12T13:30:47.988Z,2.03
2022-12-12T13:33:39.376Z,2.78
2022-12-12T13:36:23.086Z,2.58
2022-12-12T13:38:58.138Z,2.90
2022-12-12T13:41:25.008Z,2.42
2022-12-12T13:43:59.624Z,3.00
2022-12-12T13:46:29.083Z,3.13
2022-12-12T13:49:13.569Z,2.50
2022-12-12T13:51:42.386Z,2.70
2022-12-12T13:54:13.064Z,2.45
2022-12-12T13:56:41.660Z,2.75
2022-12-12T13:59:23.458Z,2.60
2022-12-12T14:02:17.584Z,2.40
2022-12-12T14:04:44.866Z,2.63
2022-12-12T14:07:25.502Z,2.63
2022-12-12T14:09:56.105Z,2.40
2022-12-12T14:12:33.291Z,2.30
2022-12-12T14:15:02.636Z,2.08
2022-12-12T14:17:36.785Z,2.40
2022-12-12T14:20:07.475Z,2.08
2022-12-12T14:22:37.470Z,2.55
2022-12-12T14:25:33.780Z,2.50
2022-12-12T14:28:02.519Z,2.50
2022-12-12T14:31:15.159Z,2.20
2022-12-12T14:33:59.854Z,2.22
2022-12-12T14:36:40.050Z,2.15
2022-12-12T14:39:25.009Z,2.47
2022-12-12T14:41:52.864Z,2.47
2022-12-12T14:44:37.895Z,2.10
2022-12-12T14:47:08.965Z,2.05
2022-12-12T14:49:36.263Z,2.65
2022-12-12T14:52:03.216Z,2.05
2022-12-12T14:54:31.127Z,2.50
2022-12-12T14:57:04.809Z,2.50
2022-12-12T14:59:38.098Z,2.53
2022-12-12T15:02:34.172Z,2.22
2022-12-12T15:05:05.279Z,2.15
2022-12-12T15:07:34.686Z,2.35
2022-12-12T15:10:01.683Z,1.88
2022-12-12T15:12:35.433Z,2.20
2022-12-12T15:15:02.927Z,2.15
2022-12-12T15:17:37.406Z,2.20
2022-12-12T15:20:09.906Z,2.33
2022-12-12T15:22:38.570Z,2.13
2022-12-12T15:25:30.461Z,2.22
2022-12-12T15:27:57.974Z,2.13
2022-12-12T15:30:43.621Z,2.50
2022-12-12T15:33:19.427Z,2.63
2022-12-12T15:36:07.150Z,2.70
2022-12-12T15:38:34.600Z,2.55
2022-12-12T15:41:06.704Z,2.38
2022-12-12T15:43:37.365Z,2.75
2022-12-12T15:46:14.864Z,2.72
2022-12-12T15:48:43.069Z,2.20
2022-12-12T15:51:10.528Z,2.38
2022-12-12T15:53:46.496Z,2.20
2022-12-12T15:56:15.758Z,2.47
2022-12-12T15:58:44.859Z,2.40
2022-12-12T16:01:21.250Z,2.33
2022-12-12T16:03:57.876Z,2.50
2022-12-12T16:06:29.803Z,2.50
2022-12-12T16:09:11.497Z,2.58
2022-12-12T16:11:48.624Z,2.80
2022-12-12T16:14:42.089Z,3.05
2022-12-12T16:17:13.775Z,2.92
2022-12-12T16:19:56.414Z,2.70
2022-12-12T16:22:39.805Z,3.38
2022-12-12T16:25:29.760Z,3.20
2022-12-12T16:28:02.324Z,3.45
2022-12-12T16:30:29.148Z,3.72
2022-12-12T16:32:55.826Z,3.95
2022-12-12T16:35:23.967Z,4.32
2022-12-12T16:37:52.582Z,4.57
2022-12-12T16:40:20.250Z,4.90
2022-12-12T16:42:55.853Z,4.80
2022-12-12T16:45:22.924Z,4.47
2022-12-12T16:47:49.627Z,4.93
2022-12-12T16:50:16.547Z,4.97
2022-12-12T16:52:43.360Z,4.80
2022-12-12T16:55:18.083Z,5.20
2022-12-12T17:00:13.249Z,5.20
2022-12-12T17:02:40.526Z,5.40
2022-12-12T17:05:08.355Z,5.40
2022-12-12T17:07:35.055Z,5.60
2022-12-12T17:10:01.752Z,6.30
2022-12-12T17:12:28.482Z,6.28
2022-12-12T17:14:55.161Z,6.00
2022-12-12T17:17:21.800Z,6.15
2022-12-12T17:19:48.458Z,5.60
2022-12-12T17:22:15.346Z,5.72
2022-12-12T17:24:42.025Z,6.07
2022-12-12T17:27:08.698Z,5.85
2022-12-12T17:29:35.314Z,6.03
2022-12-12T17:32:02.079Z,5.70
2022-12-12T17:34:28.843Z,5.63
2022-12-12T17:36:55.736Z,5.85
2022-12-12T17:39:23.079Z,6.03
2022-12-12T17:41:49.757Z,5.72
2022-12-12T17:44:16.987Z,5.85
2022-12-12T17:46:43.703Z,6.07
2022-12-12T17:49:10.652Z,6.85
2022-12-12T17:51:37.750Z,6.15
2022-12-12T17:54:04.620Z,6.10
2022-12-12T17:56:32.199Z,5.63
2022-12-12T17:58:58.895Z,5.93
2022-12-12T18:01:28.066Z,5.80
2022-12-12T18:03:55.793Z,6.00
2022-12-12T18:06:23.485Z,5.53
2022-12-12T18:08:52.573Z,5.28
2022-12-12T18:11:38.724Z,5.85
2022-12-12T18:14:07.104Z,5.55
2022-12-12T18:16:35.494Z,5.80
2022-12-12T18:19:02.871Z,6.07
2022-12-12T18:24:21.234Z,5.32
2022-12-12T18:26:55.370Z,5.88
2022-12-12T18:29:22.785Z,5.22
2022-12-12T18:31:49.584Z,5.40
2022-12-12T18:34:16.400Z,5.32
2022-12-12T18:36:43.156Z,5.35
2022-12-12T18:39:10.892Z,5.57
2022-12-12T18:41:38.107Z,6.03
2022-12-12T18:44:09.121Z,5.68
2022-12-12T18:46:42.370Z,5.40
2022-12-12T18:49:11.209Z,5.40
2022-12-12T18:51:37.883Z,5.40
2022-12-12T18:54:10.875Z,5.40
2022-12-12T18:56:41.379Z,5.43
2022-12-12T18:59:08.148Z,5.53
2022-12-12T19:01:35.995Z,4.97
2022-12-12T19:04:09.248Z,5.05
2022-12-12T19:06:42.013Z,4.95
2022-12-12T19:09:19.421Z,5.28
2022-12-12T19:11:47.230Z,5.18
2022-12-12T19:14:15.047Z,4.70
2022-12-12T19:16:42.609Z,4.80
2022-12-12T19:19:09.650Z,4.93
2022-12-12T19:21:36.568Z,4.80
2022-12-12T19:24:03.652Z,4.70
2022-12-12T19:26:30.748Z,4.72
2022-12-12T19:29:04.064Z,4.60
2022-12-12T19:31:33.498Z,4.63
2022-12-12T19:34:01.464Z,4.60
2022-12-12T19:36:28.821Z,4.57
2022-12-12T19:38:57.789Z,4.60
2022-12-12T19:41:24.859Z,4.40
2022-12-12T19:43:53.079Z,4.53
2022-12-12T19:46:23.479Z,4.50
2022-12-12T19:48:57.710Z,4.60
2022-12-12T19:51:26.021Z,4.43
2022-12-12T19:53:59.804Z,4.32
2022-12-12T19:56:32.847Z,4.38
2022-12-12T19:59:00.902Z,4.55
2022-12-12T20:01:32.579Z,4.35
2022-12-12T20:04:03.068Z,4.57
2022-12-12T20:06:29.979Z,4.53
2022-12-12T20:08:58.352Z,4.55
2022-12-12T20:11:25.125Z,4.65
2022-12-12T20:13:54.585Z,4.35
2022-12-12T20:16:26.576Z,4.78
2022-12-12T20:18:53.395Z,4.45
2022-12-12T20:21:58.719Z,4.35
2022-12-12T20:24:09.832Z,4.40
2022-12-12T20:26:36.781Z,4.30
2022-12-12T20:29:03.863Z,4.40
2022-12-12T20:31:33.382Z,4.32
2022-12-12T20:34:00.752Z,4.50
2022-12-12T20:36:31.417Z,4.60
2022-12-12T20:39:00.130Z,4.30
2022-12-12T20:41:29.294Z,4.13
2022-12-12T20:43:57.193Z,4.40
2022-12-12T20:46:32.352Z,4.28
2022-12-12T20:49:00.467Z,4.40
2022-12-12T20:51:55.478Z,4.30
2022-12-12T20:54:21.531Z,4.22
2022-12-12T20:56:52.204Z,3.95
2022-12-12T20:59:19.477Z,4.10
2022-12-12T21:01:47.511Z,4.13
2022-12-12T21:04:15.319Z,4.22
2022-12-12T21:06:51.411Z,4.22
2022-12-12T21:09:24.500Z,4.13
2022-12-12T21:11:53.990Z,3.97
2022-12-12T21:14:20.744Z,4.13
2022-12-12T21:16:47.674Z,4.07
2022-12-12T21:19:15.059Z,3.97
2022-12-12T21:21:42.808Z,4.00
2022-12-12T21:24:13.399Z,4.03
2022-12-12T21:26:40.187Z,3.85
2022-12-12T21:29:07.084Z,4.03
2022-12-12T21:31:46.592Z,3.85
2022-12-12T21:34:17.502Z,4.20
2022-12-12T21:36:44.630Z,4.40
2022-12-12T21:39:12.073Z,4.38
2022-12-12T21:41:41.524Z,4.45
2022-12-12T21:44:08.332Z,4.50
2022-12-12T21:46:35.127Z,4.82
2022-12-12T21:49:20.092Z,4.88
2022-12-12T21:51:47.507Z,4.80
2022-12-12T21:54:15.661Z,4.65
2022-12-12T21:56:43.299Z,4.80
2022-12-12T21:59:11.104Z,4.82
2022-12-12T22:01:37.882Z,4.88
2022-12-12T22:04:04.990Z,5.00
2022-12-12T22:06:34.065Z,5.13
2022-12-12T22:09:02.325Z,4.45
2022-12-12T22:11:40.536Z,4.82
2022-12-12T22:14:17.291Z,4.90
2022-12-12T22:16:44.005Z,4.75
2022-12-12T22:19:13.088Z,4.90
2022-12-12T22:21:39.942Z,4.88
2022-12-12T22:24:07.092Z,4.47
2022-12-12T22:26:36.651Z,4.57
2022-12-12T22:29:08.710Z,4.75
2022-12-12T22:31:40.257Z,4.78
2022-12-12T22:34:12.623Z,4.60
2022-12-12T22:36:39.927Z,4.30
2022-12-12T22:39:08.244Z,4.80
2022-12-12T22:41:35.068Z,4.63
2022-12-12T22:44:03.716Z,4.78
2022-12-12T22:46:30.790Z,4.70
2022-12-12T22:48:59.808Z,4.30
2022-12-12T22:51:29.393Z,4.38
2022-12-12T22:54:02.112Z,4.47
2022-12-12T22:56:30.324Z,4.38
2022-12-12T22:58:57.164Z,4.38
2022-12-12T23:01:26.339Z,4.20
2022-12-12T23:03:53.876Z,4.07
2022-12-12T23:06:24.128Z,4.20
2022-12-12T23:08:53.610Z,4.65
2022-12-12T23:11:21.588Z,4.00
2022-12-12T23:13:48.447Z,3.95
2022-12-12T23:16:18.173Z,4.25
2022-12-12T23:18:46.143Z,4.15
2022-12-12T23:21:17.212Z,3.92
2022-12-12T23:23:45.001Z,4.05
2022-12-12T23:26:17.180Z,4.05
2022-12-12T23:28:44.698Z,4.07
2022-12-12T23:31:14.129Z,4.40
2022-12-12T23:33:41.103Z,4.47
2022-12-12T23:36:09.321Z,3.78
2022-12-12T23:38:36.680Z,4.30
2022-12-12T23:41:08.662Z,3.97
2022-12-12T23:43:35.447Z,3.63
2022-12-12T23:46:04.195Z,3.85
2022-12-12T23:48:31.578Z,3.97
2022-12-12T23:50:59.022Z,3.58
2022-12-12T23:53:26.310Z,3.80
2022-12-12T23:55:53.409Z,3.65
2022-12-12T23:58:20.098Z,3.60
